Flight Track Log - Related Links

Times and Time Zones

All times are in EDT time to prevent confusion due to time zone crossing. See the DAL1670 flight status page for this flight to view local times or setup timezone preferences in your user account.

Time Position Orientation Groundspeed Altitude Reporting Facility
EDT Latitude Longitude Course Direction KTS MPH feet Rate Location/Type
Tue 08:20:00 AM 33.6167 -84.4833 73° East 202 232 2,700  Level Atlanta TRACON
Tue 08:22:00 AM 33.5167 -84.5833 220° Southwest 283 326 7,100 2,025 Climbing Atlanta TRACON
Tue 08:23:00 AM 33.5408 -83.7971 90° East  Level Estimated
Tue 08:23:57 AM 33.4514 -84.4522 121° Southeast 272 313 10,700  Level Atlanta Center
Tue 08:24:00 AM 33.5213 -83.6711 86° East  Level Estimated
Tue 08:24:57 AM 33.4536 -84.3325 89° East 324 373 12,200  Level Atlanta Center
Tue 08:25:00 AM 33.5527 -83.5486 73° East  Level FlightAware Approximate
Tue 08:25:57 AM 33.4831 -84.2181 73° East 347 399 14,400  Level Atlanta Center
Tue 08:26:57 AM 33.5125 -84.0986 73° East 361 415 16,000 1,636 Climbing Atlanta Center
Tue 08:27:58 AM 33.5333 -83.9692 79° East 379 436 17,700 1,700 Climbing Atlanta Center
Tue 08:28:57 AM 33.5542 -83.8369 79° East 391 450 19,400 1,714 Climbing Atlanta Center
Tue 08:29:57 AM 33.5747 -83.7022 80° East 410 472 21,100 1,650 Climbing Atlanta Center
Tue 08:30:57 AM 33.5931 -83.5625 81° East 417 480 22,700 942 Climbing Atlanta Center
Tue 08:31:58 AM 33.6111 -83.4203 81° East 417 480 23,000 150 Climbing Atlanta Center
Tue 08:32:57 AM 33.6269 -83.2803 82° East 429 494 23,000  Level Atlanta Center
Tue 08:33:58 AM 33.6386 -83.1331 85° East 429 494 23,000  Level Atlanta Center
Tue 08:34:57 AM 33.6458 -82.9858 87° East 429 494 23,000  Level Atlanta Center
Tue 08:35:57 AM 33.6506 -82.8436 88° East 429 494 23,000  Level Atlanta Center
Tue 08:36:57 AM 33.6514 -82.7161 90° East 424 488 23,000  Level Atlanta Center
Tue 08:37:57 AM 33.6561 -82.5764 88° East 424 488 23,000  Level Atlanta Center
Tue 08:38:57 AM 33.6461 -82.4392 95° East 419 482 23,000  Level Atlanta Center
Tue 08:39:57 AM 33.6294 -82.2997 98° East 419 482 23,000  Level Atlanta Center
Tue 08:41:38 AM 33.5939 -82.0722 101° East 419 482 23,000  Level Jacksonville Center
Tue 08:42:38 AM 33.5636 -81.9378 105° East 414 476 23,000  Level Jacksonville Center
Tue 08:43:38 AM 33.5333 -81.8061 105° East 409 471 23,000  Level Jacksonville Center
Tue 08:44:38 AM 33.5028 -81.6744 106° East 409 471 23,000  Level Jacksonville Center
Tue 08:45:38 AM 33.4639 -81.5381 109° East 416 479 23,000  Level Jacksonville Center
Tue 08:46:38 AM 33.4208 -81.4119 112° Southeast 416 479 23,000 -100 Level Jacksonville Center
Tue 08:47:38 AM 33.3753 -81.2808 113° Southeast 422 486 22,800 -1,050 Descending Jacksonville Center
Tue 08:48:38 AM 33.3319 -81.1547 112° Southeast 422 486 20,900 -2,250 Descending Jacksonville Center
Tue 08:49:38 AM 33.2925 -81.0339 111° Southeast 407 468 18,300 -2,750 Descending Jacksonville Center
Tue 08:50:38 AM 33.2553 -80.9128 110° East 394 453 15,400 -2,800 Descending Jacksonville Center
Tue 08:51:38 AM 33.2158 -80.7969 112° Southeast 383 441 12,700 -1,950 Descending Jacksonville Center
Tue 08:52:38 AM 33.1744 -80.6864 114° Southeast 377 434 11,500 -900 Descending Jacksonville Center
Tue 08:53:38 AM 33.1350 -80.5881 116° Southeast 349 402 10,900 -1,200 Descending Jacksonville Center
Tue 08:54:38 AM 33.1042 -80.5047 114° Southeast 307 353 9,100 -1,950 Descending Jacksonville Center
Tue 08:55:38 AM 33.0692 -80.4236 117° Southeast 283 326 7,000 -2,050 Descending Jacksonville Center
Tue 08:56:38 AM 33.0447 -80.3400 109° East 269 310 5,000 -2,150 Descending Jacksonville Center
Tue 08:57:38 AM 33.0347 -80.2561 98° East 258 297 2,700 -1,750 Descending Jacksonville Center
Tue 08:58:38 AM 33.0225 -80.1722 100° East 247 284 1,500 -1,200 Descending Jacksonville Center

Login

Don't have an account? Register now (free) for customized features, flight alerts, and more!